Time;durP1;ratioP1;P1;durP2;ratioP2;P2;SDS_P1;SDS_P2;PMS_P1;PMS_P2;Temp;Humidity;BMP_temperature;BMP_pressure;BME280_temperature;BME280_humidity;BME280_pressure;Samples;Min_cycle;Max_cycle;Signal;HPM_P1;HPM_P2
2021/07/19 00:00:08;;;;;;;13.35;10.63;;;;;;;25.80;61.12;93133.44;5063732;28;20123;-73
2021/07/19 00:02:34;;;;;;;12.40;9.35;;;;;;;25.79;61.70;93128.47;5063887;28;20032;-74
2021/07/19 00:04:59;;;;;;;15.98;10.25;;;;;;;25.74;62.05;93150.53;5060191;28;20121;-74
2021/07/19 00:07:24;;;;;;;12.68;10.45;;;;;;;25.67;62.46;93145.16;5061073;28;20055;-75
2021/07/19 00:09:50;;;;;;;16.50;10.23;;;;;;;25.67;62.74;93147.88;5061695;28;20062;-74
2021/07/19 00:12:16;;;;;;;12.23;10.00;;;;;;;25.62;62.42;93135.53;5060064;28;20074;-73
2021/07/19 00:14:44;;;;;;;15.35;10.63;;;;;;;25.64;61.68;93124.34;5062189;28;20166;-74
2021/07/19 00:17:10;;;;;;;12.43;9.90;;;;;;;25.74;62.13;93142.41;5061606;28;20087;-73
2021/07/19 00:19:35;;;;;;;13.20;9.82;;;;;;;25.65;62.24;93147.53;5062507;28;20609;-74
2021/07/19 00:22:01;;;;;;;12.50;9.80;;;;;;;25.50;62.51;93130.59;5062637;28;20458;-75
2021/07/19 00:24:26;;;;;;;15.65;9.55;;;;;;;25.73;62.01;93138.16;5060021;28;20036;-74
2021/07/19 00:26:52;;;;;;;13.60;10.60;;;;;;;25.84;61.65;93144.28;5060217;28;20086;-74
2021/07/19 00:29:18;;;;;;;14.45;9.50;;;;;;;25.98;61.47;93151.50;5062350;28;20037;-74
2021/07/19 00:31:43;;;;;;;12.60;10.20;;;;;;;26.01;61.08;93118.97;5065785;28;20040;-74
2021/07/19 00:34:08;;;;;;;11.63;10.25;;;;;;;26.25;60.48;93136.94;5058961;28;20055;-74
2021/07/19 00:36:34;;;;;;;10.10;8.88;;;;;;;26.29;60.60;93136.91;5058074;28;20048;-74
2021/07/19 00:39:00;;;;;;;12.95;8.98;;;;;;;26.33;60.38;93142.28;5062242;28;20027;-74
2021/07/19 00:41:26;;;;;;;14.52;9.68;;;;;;;26.24;60.65;93129.22;5063788;28;20063;-74
2021/07/19 00:43:51;;;;;;;14.85;9.80;;;;;;;26.44;59.56;93140.25;5058879;28;20147;-73
2021/07/19 00:46:17;;;;;;;13.23;9.30;;;;;;;26.38;59.40;93134.50;5063024;28;20032;-74
2021/07/19 00:48:43;;;;;;;15.00;9.57;;;;;;;26.45;59.03;93134.41;5061763;28;20049;-75
2021/07/19 00:51:10;;;;;;;14.65;10.25;;;;;;;26.52;58.84;93138.97;5062308;28;20074;-74
2021/07/19 00:53:35;;;;;;;14.13;10.13;;;;;;;26.44;58.87;93123.97;5063491;28;20039;-73
2021/07/19 00:56:01;;;;;;;11.30;9.48;;;;;;;26.57;58.83;93135.81;5062273;28;20040;-74
2021/07/19 00:58:30;;;;;;;12.88;9.65;;;;;;;26.47;58.63;93131.28;5062443;28;20063;-73
2021/07/19 01:00:58;;;;;;;16.98;9.90;;;;;;;26.34;58.87;93111.31;5062963;28;20048;-73
2021/07/19 01:03:26;;;;;;;10.93;9.75;;;;;;;26.35;59.01;93129.09;5057425;28;20051;-74
2021/07/19 01:05:51;;;;;;;11.85;10.68;;;;;;;26.30;59.23;93124.88;5063010;28;20044;-73
2021/07/19 01:08:19;;;;;;;14.32;9.98;;;;;;;25.90;60.56;93117.53;5061823;28;20114;-74
2021/07/19 01:10:46;;;;;;;13.88;10.40;;;;;;;25.70;61.02;93128.94;5058438;28;20048;-73
2021/07/19 01:13:12;;;;;;;11.52;10.32;;;;;;;25.57;61.75;93137.91;5063304;28;20059;-73
2021/07/19 01:15:38;;;;;;;12.80;11.18;;;;;;;25.58;61.80;93148.34;5058615;28;20036;-74
2021/07/19 01:18:05;;;;;;;16.67;10.57;;;;;;;25.56;61.71;93153.38;5062021;28;20046;-73
2021/07/19 01:20:56;;;;;;;16.70;10.73;;;;;;;25.37;62.48;93149.22;5061294;28;20046;-73
2021/07/19 01:23:50;;;;;;;14.35;10.95;;;;;;;25.32;62.97;93151.56;5062588;28;20044;-74
2021/07/19 01:26:31;;;;;;;14.20;11.23;;;;;;;25.23;63.55;93160.13;5061529;28;20561;-74
2021/07/19 01:28:58;;;;;;;12.98;10.73;;;;;;;25.11;63.83;93160.59;5061366;28;20533;-74
2021/07/19 01:31:31;;;;;;;13.80;11.10;;;;;;;24.83;64.80;93137.16;5062755;28;20037;-74
2021/07/19 01:33:59;;;;;;;14.18;10.63;;;;;;;24.71;65.25;93151.13;5059551;28;20033;-74
2021/07/19 01:36:29;;;;;;;16.98;11.10;;;;;;;24.81;64.83;93150.31;5055996;28;20796;-74
2021/07/19 01:38:56;;;;;;;20.33;10.93;;;;;;;24.70;65.04;93154.19;5058244;28;20032;-75
2021/07/19 01:41:23;;;;;;;14.02;10.38;;;;;;;24.47;65.83;93141.19;5061332;28;20029;-74
2021/07/19 01:43:50;;;;;;;13.35;12.05;;;;;;;24.46;65.81;93151.22;5056264;28;20057;-74
2021/07/19 01:46:16;;;;;;;22.58;12.95;;;;;;;24.78;65.08;93161.09;5061026;28;20764;-73
2021/07/19 01:48:42;;;;;;;11.85;10.65;;;;;;;24.49;65.38;93145.00;5058665;28;20538;-74
2021/07/19 01:51:10;;;;;;;17.10;11.63;;;;;;;24.47;65.61;93141.94;5062994;28;20052;-74
2021/07/19 01:53:35;;;;;;;16.65;11.38;;;;;;;24.46;65.74;93150.44;5063416;28;20047;-74
2021/07/19 01:56:02;;;;;;;16.08;13.40;;;;;;;24.49;65.91;93158.50;5058976;28;20143;-74
2021/07/19 01:58:29;;;;;;;17.33;13.65;;;;;;;24.69;65.70;93152.66;5061229;28;20043;-75
2021/07/19 02:00:55;;;;;;;14.15;12.50;;;;;;;24.71;64.69;93144.94;5064584;28;20036;-73
2021/07/19 02:03:22;;;;;;;17.05;13.00;;;;;;;24.90;64.36;93147.19;5058241;28;20075;-74
2021/07/19 02:05:48;;;;;;;15.90;13.30;;;;;;;24.79;64.74;93157.25;5061608;28;20517;-74
2021/07/19 02:08:19;;;;;;;15.23;12.32;;;;;;;24.91;64.30;93160.31;5059597;28;20024;-73
2021/07/19 02:10:54;;;;;;;18.73;13.40;;;;;;;24.97;64.24;93147.16;5062833;28;20150;-74
2021/07/19 02:13:21;;;;;;;14.38;12.30;;;;;;;25.03;63.42;93151.75;5058394;28;20084;-73
2021/07/19 02:15:49;;;;;;;15.65;13.38;;;;;;;25.06;63.28;93163.72;5059961;28;20047;-74
2021/07/19 02:18:17;;;;;;;18.10;12.80;;;;;;;25.00;62.94;93146.38;5069497;28;20040;-74
2021/07/19 02:20:44;;;;;;;16.27;11.68;;;;;;;25.21;62.36;93167.13;5060384;28;20761;-74
2021/07/19 02:23:11;;;;;;;18.00;11.75;;;;;;;25.22;62.21;93164.00;5068941;28;20102;-73
2021/07/19 02:25:39;;;;;;;12.57;11.20;;;;;;;24.73;63.50;93150.72;5060060;28;20430;-74
2021/07/19 02:28:07;;;;;;;20.27;13.63;;;;;;;24.72;63.96;93146.47;5061509;28;20036;-73
2021/07/19 02:30:33;;;;;;;20.40;13.40;;;;;;;24.79;64.08;93165.34;5059694;28;20037;-75
2021/07/19 02:32:59;;;;;;;18.20;12.82;;;;;;;24.96;63.62;93167.25;5061740;28;20031;-74
2021/07/19 02:35:26;;;;;;;15.30;12.82;;;;;;;24.99;63.11;93152.94;5059131;28;20475;-73
2021/07/19 02:37:56;;;;;;;13.38;11.57;;;;;;;24.67;64.27;93155.00;5061226;28;20033;-73
2021/07/19 02:40:23;;;;;;;16.83;13.60;;;;;;;24.66;64.66;93162.31;5061688;28;20041;-73
2021/07/19 02:42:52;;;;;;;18.88;12.90;;;;;;;24.73;64.17;93153.44;5061876;28;20109;-73
2021/07/19 02:45:20;;;;;;;14.43;12.60;;;;;;;24.86;64.08;93157.22;5058577;28;20036;-74
2021/07/19 02:47:48;;;;;;;18.20;13.30;;;;;;;24.87;63.44;93169.59;5062022;28;20056;-74
2021/07/19 02:50:16;;;;;;;16.13;12.43;;;;;;;24.88;63.32;93171.13;5055358;28;20165;-74
2021/07/19 02:52:43;;;;;;;18.17;11.65;;;;;;;24.85;63.06;93178.06;5061251;28;20504;-73
2021/07/19 02:55:10;;;;;;;16.10;13.23;;;;;;;24.93;62.73;93170.72;5060994;28;20606;-73
2021/07/19 02:57:36;;;;;;;13.73;12.15;;;;;;;24.99;62.67;93178.03;5061008;28;20067;-73
2021/07/19 03:00:11;;;;;;;18.77;13.80;;;;;;;24.97;62.83;93171.50;5060116;28;20645;-74
2021/07/19 03:02:39;;;;;;;;;;;;;;;25.05;62.27;93174.91;5061697;28;20508;-74
2021/07/19 03:05:05;;;;;;;15.98;14.27;;;;;;;25.06;62.34;93189.97;5058626;28;19924;-74
2021/07/19 03:07:31;;;;;;;17.52;13.18;;;;;;;24.72;63.81;93181.59;5058325;28;20033;-74
2021/07/19 03:10:00;;;;;;;20.10;13.73;;;;;;;24.53;64.02;93153.88;5066910;28;20028;-73
2021/07/19 03:12:27;;;;;;;15.77;13.15;;;;;;;24.85;63.48;93188.88;5058503;28;20448;-74
2021/07/19 03:14:54;;;;;;;16.13;12.65;;;;;;;24.89;63.42;93183.47;5056052;28;20093;-73
2021/07/19 03:17:21;;;;;;;17.58;12.75;;;;;;;24.77;63.82;93189.31;5059423;28;20403;-73
2021/07/19 03:19:49;;;;;;;18.13;13.27;;;;;;;24.83;63.82;93199.31;5066442;28;20131;-74
2021/07/19 03:22:16;;;;;;;13.68;12.25;;;;;;;24.69;63.70;93177.75;5053118;28;20052;-73
2021/07/19 03:24:45;;;;;;;18.08;13.45;;;;;;;24.72;64.01;93200.53;5060236;28;20044;-73
2021/07/19 03:27:11;;;;;;;15.45;13.60;;;;;;;24.43;65.17;93200.59;5061262;28;20451;-73
2021/07/19 03:29:36;;;;;;;18.08;14.50;;;;;;;24.54;64.81;93203.25;5064211;28;20024;-74
2021/07/19 03:32:04;;;;;;;17.33;14.25;;;;;;;24.38;65.22;93189.44;5063651;28;20609;-74
2021/07/19 03:34:30;;;;;;;19.55;14.23;;;;;;;24.35;65.60;93204.47;5063470;28;20040;-73
2021/07/19 03:36:56;;;;;;;21.45;16.45;;;;;;;24.38;65.70;93203.72;5062238;28;20184;-73
2021/07/19 03:39:23;;;;;;;17.50;15.65;;;;;;;24.47;64.99;93195.97;5065536;28;20047;-75
2021/07/19 03:41:53;;;;;;;19.05;15.82;;;;;;;24.72;64.55;93217.50;5060818;28;20094;-74
2021/07/19 03:44:20;;;;;;;23.10;16.05;;;;;;;24.73;64.49;93218.28;5065446;28;20008;-73
2021/07/19 03:46:46;;;;;;;24.45;16.20;;;;;;;24.85;64.34;93210.50;5061497;28;20036;-74
2021/07/19 03:49:14;;;;;;;23.73;16.63;;;;;;;24.93;63.94;93216.66;5066288;28;20498;-73
2021/07/19 03:51:42;;;;;;;22.77;16.30;;;;;;;25.03;63.15;93218.56;5059336;28;20039;-73
2021/07/19 03:54:08;;;;;;;27.75;17.77;;;;;;;25.01;63.12;93216.28;5060298;28;20075;-75
2021/07/19 03:56:35;;;;;;;19.77;16.77;;;;;;;25.03;62.63;93205.03;5064362;28;20126;-73
2021/07/19 03:59:02;;;;;;;19.40;17.23;;;;;;;25.15;62.85;93223.53;5062432;28;20143;-74
2021/07/19 04:01:28;;;;;;;19.05;16.00;;;;;;;25.11;62.60;93213.91;5063711;28;20055;-73
2021/07/19 04:03:56;;;;;;;18.02;16.17;;;;;;;25.05;63.30;93212.75;5062379;28;20066;-73
2021/07/19 04:06:23;;;;;;;19.35;16.02;;;;;;;25.24;62.49;93231.22;5069514;28;20087;-74
2021/07/19 04:08:49;;;;;;;16.85;15.10;;;;;;;25.22;62.39;93217.31;5061098;28;20503;-74
2021/07/19 04:11:17;;;;;;;30.23;15.10;;;;;;;25.34;62.32;93228.47;5063854;28;20024;-73
2021/07/19 04:13:44;;;;;;;16.63;13.88;;;;;;;25.31;61.73;93226.56;5060733;28;20044;-73
2021/07/19 04:16:14;;;;;;;22.08;15.45;;;;;;;25.36;61.95;93230.78;5065753;28;20130;-74
2021/07/19 04:18:40;;;;;;;20.23;16.30;;;;;;;25.28;61.96;93221.91;5058551;28;20036;-74
2021/07/19 04:21:06;;;;;;;22.65;15.07;;;;;;;25.27;62.24;93217.66;5062324;28;20499;-74
2021/07/19 04:23:32;;;;;;;23.10;15.85;;;;;;;25.48;61.84;93235.72;5061033;28;20028;-74
2021/07/19 04:25:58;;;;;;;17.67;15.63;;;;;;;25.51;61.43;93224.09;5063087;28;20040;-74
2021/07/19 04:28:24;;;;;;;21.92;16.50;;;;;;;25.60;61.41;93226.41;5062801;28;20445;-74
2021/07/19 04:30:50;;;;;;;22.63;16.90;;;;;;;25.73;60.55;93224.78;5061692;28;20040;-73
2021/07/19 04:33:22;;;;;;;22.55;16.83;;;;;;;25.72;59.95;93221.28;5062706;28;20044;-74
2021/07/19 04:35:48;;;;;;;22.52;16.67;;;;;;;25.81;60.34;93227.03;5069685;28;20184;-74
2021/07/19 04:38:15;;;;;;;21.77;17.27;;;;;;;25.77;60.11;93220.09;5062534;28;20578;-73
2021/07/19 04:40:44;;;;;;;20.92;16.65;;;;;;;25.70;59.99;93207.41;5059906;28;20044;-73
2021/07/19 04:43:09;;;;;;;19.60;15.95;;;;;;;25.80;59.75;93224.72;5060182;28;20033;-74
2021/07/19 04:45:35;;;;;;;29.67;17.05;;;;;;;25.69;60.36;93229.44;5059784;28;20039;-74
2021/07/19 04:48:00;;;;;;;17.35;15.38;;;;;;;25.75;60.07;93233.28;5058329;28;20301;-74
2021/07/19 04:50:25;;;;;;;22.27;16.55;;;;;;;25.65;61.01;93224.06;5061957;28;20665;-74
2021/07/19 04:52:51;;;;;;;19.23;17.17;;;;;;;25.94;59.90;93240.88;5063625;28;20068;-74
2021/07/19 04:55:20;;;;;;;19.30;14.90;;;;;;;26.11;59.21;93239.16;5058918;28;20039;-74
2021/07/19 04:57:52;;;;;;;16.67;14.38;;;;;;;26.01;58.51;93237.31;5058110;28;20093;-75
2021/07/19 05:00:19;;;;;;;16.17;14.48;;;;;;;26.18;59.10;93250.72;5064683;28;20040;-74
2021/07/19 05:02:46;;;;;;;22.35;15.27;;;;;;;26.02;58.70;93236.16;5058611;28;20111;-72
2021/07/19 05:05:18;;;;;;;20.42;15.48;;;;;;;26.22;58.21;93254.19;5061201;28;20033;-75
2021/07/19 05:07:45;;;;;;;19.15;14.93;;;;;;;26.33;58.47;93256.81;5059987;28;20032;-75
2021/07/19 05:10:13;;;;;;;20.17;14.82;;;;;;;26.39;57.35;93249.03;5062914;28;20174;-74
2021/07/19 05:12:46;;;;;;;20.35;14.98;;;;;;;26.23;57.26;93255.75;5057850;28;20089;-74
2021/07/19 05:15:12;;;;;;;21.80;15.80;;;;;;;26.34;57.19;93263.03;5062210;28;20499;-73
2021/07/19 05:17:39;;;;;;;17.40;14.68;;;;;;;26.41;57.72;93262.94;5061243;28;20040;-74
2021/07/19 05:20:11;;;;;;;21.67;16.65;;;;;;;26.10;57.60;93254.66;5064153;28;20611;-74
2021/07/19 05:22:36;;;;;;;20.27;16.67;;;;;;;26.09;59.14;93263.97;5068962;28;20090;-73
2021/07/19 05:25:02;;;;;;;22.92;17.02;;;;;;;26.09;57.94;93253.13;5061661;28;20045;-73
2021/07/19 05:27:28;;;;;;;18.52;16.10;;;;;;;26.00;57.46;93250.06;5064560;28;20452;-73
2021/07/19 05:29:53;;;;;;;22.35;16.42;;;;;;;25.67;59.21;93242.59;5060395;28;20031;-73
2021/07/19 05:32:19;;;;;;;25.60;17.20;;;;;;;25.90;59.45;93253.66;5063628;28;20397;-74
2021/07/19 05:34:45;;;;;;;21.73;14.90;;;;;;;25.94;58.91;93246.28;5059224;28;20115;-74
2021/07/19 05:37:10;;;;;;;23.40;16.33;;;;;;;25.97;58.80;93245.47;5060401;28;20132;-73
2021/07/19 05:39:36;;;;;;;19.65;17.00;;;;;;;25.97;58.75;93250.88;5058321;28;20072;-73
2021/07/19 05:42:01;;;;;;;27.58;16.90;;;;;;;26.11;59.40;93247.28;5060169;28;20398;-74
2021/07/19 05:44:27;;;;;;;25.13;16.98;;;;;;;26.22;58.06;93232.53;5059092;28;20060;-74
2021/07/19 05:46:52;;;;;;;22.63;17.75;;;;;;;26.36;57.53;93256.00;5061561;28;20036;-74
2021/07/19 05:49:19;;;;;;;21.63;17.23;;;;;;;26.59;57.19;93255.41;5060463;28;20032;-73
2021/07/19 05:51:44;;;;;;;19.90;16.25;;;;;;;26.49;56.47;93248.16;5067425;28;20094;-73
2021/07/19 05:54:10;;;;;;;27.27;16.65;;;;;;;26.76;56.41;93254.47;5060631;28;20254;-73
2021/07/19 05:56:35;;;;;;;22.98;16.95;;;;;;;26.61;56.54;93207.78;5061280;28;20115;-74
2021/07/19 05:59:02;;;;;;;26.15;17.35;;;;;;;27.06;55.87;93245.66;5061738;28;20041;-74
2021/07/19 06:01:28;;;;;;;24.00;17.38;;;;;;;26.99;54.71;93262.75;5059679;28;20036;-74
2021/07/19 06:03:53;;;;;;;26.00;17.02;;;;;;;26.89;55.35;93243.91;5060825;28;20614;-74
2021/07/19 06:06:18;;;;;;;21.05;16.02;;;;;;;27.07;55.52;93264.22;5063459;28;20048;-74
2021/07/19 06:08:44;;;;;;;24.70;17.40;;;;;;;27.28;54.74;93259.72;5059778;28;20465;-74
2021/07/19 06:11:09;;;;;;;28.08;16.52;;;;;;;27.33;54.27;93259.25;5060891;28;20032;-74
2021/07/19 06:13:35;;;;;;;26.10;17.17;;;;;;;27.48;53.39;93269.53;5060581;28;20056;-74
2021/07/19 06:16:00;;;;;;;25.63;16.50;;;;;;;27.51;53.11;93268.72;5060004;28;20037;-74
2021/07/19 06:18:26;;;;;;;21.63;14.90;;;;;;;27.50;53.73;93266.44;5059977;28;20063;-74
2021/07/19 06:20:51;;;;;;;19.77;15.07;;;;;;;27.29;53.17;93228.69;5059823;28;20035;-74
2021/07/19 06:23:17;;;;;;;25.88;17.05;;;;;;;27.46;52.68;93271.13;5063262;28;20078;-74
2021/07/19 06:25:42;;;;;;;22.08;15.15;;;;;;;27.52;52.58;93255.94;5061635;28;20518;-75
2021/07/19 06:28:09;;;;;;;23.40;14.65;;;;;;;27.62;52.58;93271.31;5059698;28;20060;-74
2021/07/19 06:30:35;;;;;;;19.77;14.18;;;;;;;27.66;52.48;93269.31;5059490;28;20040;-74
2021/07/19 06:33:01;;;;;;;25.75;15.00;;;;;;;27.56;52.43;93238.44;5057151;28;20024;-74
2021/07/19 06:35:27;;;;;;;22.13;14.43;;;;;;;27.69;51.97;93251.44;5058935;28;20080;-74
2021/07/19 06:37:52;;;;;;;19.30;15.25;;;;;;;27.63;51.65;93259.28;5057572;28;20052;-74
2021/07/19 06:40:18;;;;;;;24.08;14.68;;;;;;;27.74;52.10;93257.19;5059400;28;20109;-74
2021/07/19 06:42:44;;;;;;;19.30;13.45;;;;;;;27.89;51.75;93249.63;5058918;28;20040;-74
2021/07/19 06:45:12;;;;;;;25.25;14.02;;;;;;;27.99;51.74;93256.84;5060522;28;20871;-74
2021/07/19 06:47:39;;;;;;;22.83;14.27;;;;;;;28.11;51.37;93234.53;5060471;28;20035;-74
2021/07/19 06:50:07;;;;;;;19.67;13.23;;;;;;;27.94;50.99;93203.75;5058793;28;20155;-74
2021/07/19 06:52:32;;;;;;;17.35;13.50;;;;;;;28.22;50.50;93246.00;5056955;28;20145;-73
2021/07/19 06:54:58;;;;;;;26.75;12.88;;;;;;;28.40;51.06;93245.72;5058297;28;20033;-74
2021/07/19 06:57:23;;;;;;;14.20;12.05;;;;;;;28.49;49.70;93243.25;5058240;28;20044;-74
2021/07/19 06:59:48;;;;;;;14.90;12.73;;;;;;;28.62;50.07;93238.72;5061123;28;20119;-74
2021/07/19 07:02:15;;;;;;;15.85;12.32;;;;;;;28.51;49.80;93230.00;5070431;28;20479;-74
2021/07/19 07:04:41;;;;;;;26.63;12.75;;;;;;;28.60;49.76;93226.72;5062593;28;20094;-74
2021/07/19 07:07:07;;;;;;;22.75;12.25;;;;;;;28.57;49.93;93222.91;5065393;28;20026;-75
2021/07/19 07:09:33;;;;;;;20.15;13.75;;;;;;;28.88;49.94;93233.63;5063571;28;20040;-73
2021/07/19 07:11:58;;;;;;;24.10;13.38;;;;;;;28.96;51.13;93226.88;5069628;28;20959;-73
2021/07/19 07:14:23;;;;;;;23.17;12.80;;;;;;;28.69;49.29;93230.44;5067236;28;20020;-74
2021/07/19 07:16:49;;;;;;;15.60;12.80;;;;;;;28.76;48.42;93224.91;5067426;28;20397;-73
2021/07/19 07:19:14;;;;;;;16.75;13.38;;;;;;;28.94;49.64;93221.06;5066305;28;20135;-74
2021/07/19 07:21:40;;;;;;;20.02;13.85;;;;;;;28.85;48.43;93222.41;5065841;28;20036;-75
2021/07/19 07:24:06;;;;;;;21.02;13.27;;;;;;;28.78;48.35;93211.66;5065940;28;20036;-75
2021/07/19 07:26:31;;;;;;;16.35;12.18;;;;;;;28.81;48.41;93213.53;5065265;28;20028;-74
2021/07/19 07:28:57;;;;;;;14.75;11.55;;;;;;;28.91;48.20;93200.16;5065760;28;20102;-75
2021/07/19 07:31:29;;;;;;;20.38;12.40;;;;;;;28.76;48.58;93200.44;5066733;28;20039;-74
2021/07/19 07:33:59;;;;;;;16.17;13.05;;;;;;;28.85;48.51;93192.47;5066097;28;21056;-74
2021/07/19 07:36:33;;;;;;;15.90;11.48;;;;;;;28.90;48.04;93201.34;5066537;28;20041;-74
2021/07/19 07:38:59;;;;;;;15.35;11.07;;;;;;;28.69;47.99;93199.75;5065974;28;20016;-75
2021/07/19 07:41:25;;;;;;;17.02;12.13;;;;;;;28.70;48.61;93204.78;5068650;28;20081;-74
2021/07/19 07:43:50;;;;;;;19.02;12.85;;;;;;;28.76;48.54;93184.13;5063721;28;20525;-74
2021/07/19 07:46:16;;;;;;;16.58;11.23;;;;;;;28.87;47.76;93185.88;5066424;28;20438;-74
2021/07/19 07:48:42;;;;;;;15.35;11.52;;;;;;;29.06;48.36;93190.53;5067351;28;20036;-74
2021/07/19 07:51:08;;;;;;;13.18;11.70;;;;;;;29.05;47.64;93208.81;5066499;28;20036;-73
2021/07/19 07:53:35;;;;;;;21.92;11.10;;;;;;;29.17;46.97;93207.41;5066619;28;20029;-74
2021/07/19 07:56:00;;;;;;;12.18;10.25;;;;;;;29.22;47.17;93206.91;5068220;28;20052;-73
2021/07/19 07:58:27;;;;;;;16.45;11.68;;;;;;;29.19;47.27;93194.13;5066000;28;20107;-74
2021/07/19 08:00:52;;;;;;;15.98;11.75;;;;;;;29.50;48.69;93206.34;5070115;28;20135;-75
2021/07/19 08:03:18;;;;;;;14.38;10.82;;;;;;;29.48;47.03;93200.53;5060636;28;20036;-76
2021/07/19 08:05:43;;;;;;;13.35;10.55;;;;;;;29.64;46.81;93206.03;5059773;28;20745;-74
2021/07/19 08:08:09;;;;;;;14.15;11.00;;;;;;;29.77;46.07;93197.16;5059491;28;20055;-74
2021/07/19 08:10:34;;;;;;;20.33;11.20;;;;;;;29.78;46.40;93202.22;5059482;28;21318;-75
2021/07/19 08:13:00;;;;;;;19.65;9.82;;;;;;;29.61;44.06;93196.00;5061180;28;20781;-73
2021/07/19 08:15:25;;;;;;;13.10;9.35;;;;;;;29.55;44.39;93194.94;5068580;28;20036;-74
2021/07/19 08:17:51;;;;;;;13.05;9.98;;;;;;;29.45;45.13;93187.00;5064813;28;20062;-74
2021/07/19 08:20:17;;;;;;;17.52;10.00;;;;;;;29.63;45.02;93182.69;5064002;28;20037;-74
2021/07/19 08:22:47;;;;;;;15.98;10.13;;;;;;;29.46;45.37;93199.44;5062938;28;20047;-74
2021/07/19 08:25:14;;;;;;;21.42;11.52;;;;;;;29.56;45.23;93193.00;5063891;28;20040;-74
2021/07/19 08:27:41;;;;;;;10.80;9.70;;;;;;;29.62;44.96;93199.44;5068662;28;20103;-74
2021/07/19 08:30:09;;;;;;;18.23;10.18;;;;;;;29.81;44.64;93209.50;5065980;28;20056;-75
2021/07/19 08:32:35;;;;;;;11.68;9.82;;;;;;;29.83;44.70;93207.16;5067268;28;20474;-76
2021/07/19 08:35:00;;;;;;;21.35;10.50;;;;;;;29.75;44.68;93199.56;5067672;28;20043;-75
2021/07/19 08:37:27;;;;;;;15.20;10.18;;;;;;;29.81;44.37;93201.34;5063482;28;20028;-76
2021/07/19 08:39:53;;;;;;;14.90;10.70;;;;;;;29.79;44.18;93201.03;5065493;28;20051;-75
2021/07/19 08:42:19;;;;;;;14.50;10.77;;;;;;;29.89;44.55;93182.94;5064159;28;20070;-72
2021/07/19 08:44:44;;;;;;;12.40;9.73;;;;;;;30.06;44.19;93187.16;5063960;28;20024;-76
2021/07/19 08:47:13;;;;;;;14.10;9.38;;;;;;;30.15;43.49;93190.09;5065653;28;20123;-75
2021/07/19 08:49:40;;;;;;;16.33;10.48;;;;;;;30.24;43.66;93187.53;5064592;28;20055;-74
2021/07/19 08:52:05;;;;;;;17.40;10.35;;;;;;;30.35;43.90;93198.91;5068082;28;20034;-74
2021/07/19 08:54:36;;;;;;;10.68;9.55;;;;;;;30.48;44.24;93197.06;5066132;28;20785;-74
2021/07/19 08:57:03;;;;;;;15.82;9.63;;;;;;;30.38;42.81;93195.34;5059444;28;20067;-73
2021/07/19 08:59:30;;;;;;;16.58;9.65;;;;;;;30.32;42.95;93183.41;5063963;28;20025;-75
2021/07/19 09:01:59;;;;;;;13.18;9.65;;;;;;;30.15;43.04;93184.63;5068213;28;20035;-73
2021/07/19 09:04:25;;;;;;;12.85;10.15;;;;;;;29.97;43.37;93178.84;5067297;28;20156;-74
2021/07/19 09:06:51;;;;;;;13.77;9.93;;;;;;;30.14;43.65;93174.91;5066646;28;20554;-74
2021/07/19 09:09:33;;;;;;;12.18;8.95;;;;;;;30.21;43.45;93193.81;5064730;28;20085;-74
2021/07/19 09:12:02;;;;;;;16.83;10.55;;;;;;;30.25;43.31;93199.19;5063468;28;20030;-74
2021/07/19 09:14:28;;;;;;;13.60;9.43;;;;;;;30.35;43.20;93187.25;5063628;28;20028;-74
2021/07/19 09:16:54;;;;;;;12.70;10.05;;;;;;;30.21;43.00;93182.13;5063854;28;20048;-72
2021/07/19 09:19:21;;;;;;;20.30;10.27;;;;;;;30.26;43.53;93168.75;5064545;28;20452;-75
2021/07/19 09:21:55;;;;;;;20.13;11.75;;;;;;;30.34;43.63;93169.38;5063033;28;20040;-74
2021/07/19 09:24:26;;;;;;;19.05;11.05;;;;;;;30.25;43.48;93177.38;5062849;28;20036;-74
2021/07/19 09:26:53;;;;;;;14.77;10.52;;;;;;;30.35;43.20;93185.28;5063601;28;20216;-74
2021/07/19 09:29:22;;;;;;;12.35;10.85;;;;;;;30.31;43.69;93181.88;5063089;28;20385;-73
2021/07/19 09:31:54;;;;;;;16.65;11.25;;;;;;;30.27;43.63;93175.75;5061541;28;20067;-75
2021/07/19 09:34:21;;;;;;;21.13;12.05;;;;;;;30.11;43.68;93162.13;5064639;28;20528;-73
2021/07/19 09:36:57;;;;;;;15.07;11.10;;;;;;;30.31;43.96;93168.25;5059880;28;20036;-74
2021/07/19 09:39:22;;;;;;;16.58;11.43;;;;;;;30.33;44.46;93163.16;5063882;28;20097;-75
2021/07/19 09:41:48;;;;;;;19.27;12.70;;;;;;;30.33;43.97;93167.81;5063622;28;20056;-74
2021/07/19 09:44:14;;;;;;;17.33;12.23;;;;;;;30.38;44.19;93165.34;5067857;28;20506;-74
2021/07/19 09:46:40;;;;;;;16.05;12.20;;;;;;;30.59;44.00;93180.41;5063680;28;20046;-74
2021/07/19 09:49:06;;;;;;;16.80;13.43;;;;;;;30.50;43.51;93178.28;5062436;28;20044;-75
2021/07/19 09:51:34;;;;;;;18.65;13.52;;;;;;;30.64;43.10;93162.78;5064349;28;20039;-74
2021/07/19 09:54:13;;;;;;;17.95;11.73;;;;;;;30.59;43.60;93179.66;5065185;28;20478;-75
2021/07/19 09:56:40;;;;;;;17.20;11.98;;;;;;;30.84;43.71;93185.19;5063226;28;20025;-75
2021/07/19 09:59:15;;;;;;;20.10;11.98;;;;;;;30.87;43.53;93178.88;5062937;28;20090;-74
2021/07/19 10:01:44;;;;;;;25.05;13.40;;;;;;;30.74;43.03;93161.72;5069595;28;20566;-74
2021/07/19 10:04:12;;;;;;;14.80;12.77;;;;;;;30.84;42.69;93177.75;5061674;28;20081;-74
2021/07/19 10:06:40;;;;;;;14.43;11.85;;;;;;;31.02;43.29;93173.81;5062029;28;20028;-74
2021/07/19 10:09:07;;;;;;;17.27;12.65;;;;;;;31.14;42.59;93175.81;5061318;28;20773;-74
2021/07/19 10:11:35;;;;;;;14.52;13.00;;;;;;;31.14;42.37;93168.38;5064355;28;20599;-74
2021/07/19 10:14:01;;;;;;;15.80;12.23;;;;;;;31.16;41.65;93160.53;5062361;28;20044;-74
2021/07/19 10:16:28;;;;;;;19.48;13.45;;;;;;;31.20;41.47;93169.38;5061884;28;20028;-74
2021/07/19 10:18:55;;;;;;;22.08;13.18;;;;;;;31.37;41.26;93173.53;5079714;28;20036;-74
2021/07/19 10:21:22;;;;;;;16.45;12.48;;;;;;;31.27;40.79;93168.41;5058257;28;20514;-75
2021/07/19 10:23:48;;;;;;;16.27;14.18;;;;;;;31.52;44.75;93173.16;5063466;28;20501;-74
2021/07/19 10:26:15;;;;;;;17.77;12.82;;;;;;;31.42;41.01;93152.38;5064597;28;20032;-74
2021/07/19 10:28:41;;;;;;;18.90;13.02;;;;;;;31.36;41.34;93163.84;5062180;28;20043;-74
2021/07/19 10:31:08;;;;;;;17.38;13.00;;;;;;;31.36;40.98;93149.44;5060027;28;20028;-73
2021/07/19 10:33:35;;;;;;;19.40;12.15;;;;;;;31.56;41.98;93151.94;5063517;28;20101;-72
2021/07/19 10:36:05;;;;;;;16.55;13.32;;;;;;;31.69;40.09;93153.50;5067524;28;20016;-74
2021/07/19 10:38:33;;;;;;;18.63;13.20;;;;;;;31.61;40.02;93149.47;5066353;28;20123;-74
2021/07/19 10:40:59;;;;;;;22.10;13.57;;;;;;;31.63;42.98;93122.47;5066697;28;20105;-74
2021/07/19 10:43:28;;;;;;;20.40;14.65;;;;;;;31.71;41.05;93148.38;5065838;28;20044;-74
2021/07/19 10:45:54;;;;;;;21.75;14.15;;;;;;;31.58;40.40;93144.09;5067287;28;20032;-74
2021/07/19 10:48:23;;;;;;;17.48;12.32;;;;;;;31.69;40.81;93148.03;5068524;28;20518;-75
2021/07/19 10:50:49;;;;;;;16.40;13.50;;;;;;;31.80;41.34;93136.78;5066216;28;20031;-73
2021/07/19 10:53:21;;;;;;;21.67;13.73;;;;;;;31.53;40.88;93120.03;5069183;28;20051;-74
2021/07/19 10:56:12;;;;;;;19.30;13.98;;;;;;;31.37;41.23;93134.56;5066558;28;20052;-74
2021/07/19 10:58:48;;;;;;;23.45;14.27;;;;;;;31.38;41.27;93117.75;5067483;28;20058;-74
2021/07/19 11:01:28;;;;;;;25.38;13.35;;;;;;;31.37;40.69;93116.22;5067834;28;20558;-74
2021/07/19 11:03:55;;;;;;;19.30;14.40;;;;;;;31.25;40.60;93119.72;5071032;28;20040;-74
2021/07/19 11:06:38;;;;;;;19.90;13.52;;;;;;;31.25;40.84;93111.53;5067149;28;20115;-74
2021/07/19 11:09:06;;;;;;;16.70;12.90;;;;;;;31.34;40.76;93097.97;5062412;28;20028;-74
2021/07/19 11:11:33;;;;;;;20.38;13.60;;;;;;;31.58;40.70;93100.41;5066920;28;20861;-74
2021/07/19 11:14:04;;;;;;;21.92;14.93;;;;;;;31.96;40.72;93112.03;5064031;28;20127;-75
2021/07/19 11:17:08;;;;;;;25.45;14.00;;;;;;;32.01;39.75;93119.69;5069049;28;20044;-74
2021/07/19 11:19:39;;;;;;;23.05;14.32;;;;;;;31.93;40.12;93112.94;5015877;28;20140;-74